Time;durP1;ratioP1;P1;durP2;ratioP2;P2;SDS_P1;SDS_P2;PMS_P1;PMS_P2;Temp;Humidity;BMP_temperature;BMP_pressure;BME280_temperature;BME280_humidity;BME280_pressure;Samples;Min_cycle;Max_cycle;Signal;HPM_P1;HPM_P2
2023/03/06 00:00:28;;;;;;;4.90;1.10;;;3.00;99.90;;;;;;5092950;28;20189;-58
2023/03/06 00:02:54;;;;;;;3.47;0.90;;;2.40;99.90;;;;;;5091710;28;20050;-58
2023/03/06 00:05:20;;;;;;;3.60;0.93;;;1.50;99.90;;;;;;5091473;28;20132;-58
2023/03/06 00:07:46;;;;;;;2.10;1.00;;;1.90;99.90;;;;;;5091731;28;20127;-58
2023/03/06 00:10:15;;;;;;;2.25;0.90;;;1.60;99.90;;;;;;5092837;28;20495;-59
2023/03/06 00:12:41;;;;;;;4.05;1.10;;;1.70;99.90;;;;;;5092948;28;20078;-58
2023/03/06 00:15:07;;;;;;;6.55;1.10;;;2.70;99.90;;;;;;5092464;28;20036;-58
2023/03/06 00:17:32;;;;;;;3.53;1.00;;;2.00;99.90;;;;;;5092646;28;20048;-58
2023/03/06 00:19:58;;;;;;;2.80;0.93;;;1.40;99.90;;;;;;5092456;28;20038;-58
2023/03/06 00:22:25;;;;;;;2.90;0.80;;;1.40;99.90;;;;;;5091326;28;20055;-58
2023/03/06 00:24:52;;;;;;;3.92;0.95;;;2.20;99.90;;;;;;5092592;28;20505;-58
2023/03/06 00:27:19;;;;;;;3.30;0.95;;;3.00;99.90;;;;;;5092784;28;20035;-58
2023/03/06 00:29:47;;;;;;;5.25;1.13;;;3.00;99.90;;;;;;5092433;28;20105;-58
2023/03/06 00:32:14;;;;;;;2.58;1.17;;;2.30;99.90;;;;;;5092418;28;20079;-58
2023/03/06 00:34:40;;;;;;;4.40;1.27;;;2.40;99.90;;;;;;5092288;28;20479;-58
2023/03/06 00:37:05;;;;;;;3.85;1.00;;;1.30;99.90;;;;;;5092233;28;20090;-58
2023/03/06 00:39:31;;;;;;;4.82;0.90;;;3.00;99.90;;;;;;5092396;28;20491;-58
2023/03/06 00:41:57;;;;;;;2.58;0.82;;;1.50;99.90;;;;;;5092360;28;20042;-58
2023/03/06 00:44:23;;;;;;;4.55;1.00;;;1.40;99.90;;;;;;5092335;28;20039;-58
2023/03/06 00:46:49;;;;;;;2.22;1.00;;;3.00;99.90;;;;;;5092441;28;20048;-59
2023/03/06 00:49:14;;;;;;;2.55;0.95;;;1.30;99.90;;;;;;5092056;28;20052;-60
2023/03/06 00:51:40;;;;;;;2.75;0.98;;;2.70;99.90;;;;;;5092043;28;20518;-59
2023/03/06 00:54:06;;;;;;;4.70;1.40;;;2.40;99.90;;;;;;5092445;28;20072;-59
2023/03/06 00:56:31;;;;;;;4.00;0.90;;;2.20;99.90;;;;;;5092329;28;20039;-59
2023/03/06 00:58:57;;;;;;;5.45;1.13;;;2.80;99.90;;;;;;5092392;28;20061;-59
2023/03/06 01:01:23;;;;;;;4.07;1.38;;;1.20;99.90;;;;;;5092149;28;20495;-59
2023/03/06 01:03:48;;;;;;;2.08;0.88;;;2.40;99.90;;;;;;5092149;28;20047;-59
2023/03/06 01:06:14;;;;;;;3.60;1.10;;;1.10;99.90;;;;;;5092403;28;20032;-58
2023/03/06 01:08:40;;;;;;;5.65;1.30;;;1.20;99.90;;;;;;5091990;28;20036;-59
2023/03/06 01:11:05;;;;;;;3.70;1.00;;;2.90;99.90;;;;;;5091961;28;20052;-57
2023/03/06 01:13:31;;;;;;;2.30;1.00;;;2.00;99.90;;;;;;5090633;28;20051;-57
2023/03/06 01:16:12;;;;;;;3.53;1.10;;;3.00;99.90;;;;;;5092002;28;20127;-57
2023/03/06 01:18:38;;;;;;;3.08;1.10;;;1.50;99.90;;;;;;5091845;28;20036;-57
2023/03/06 01:21:05;;;;;;;5.28;1.10;;;2.10;99.90;;;;;;5092162;28;20043;-57
2023/03/06 01:23:31;;;;;;;4.40;1.55;;;2.70;99.90;;;;;;5091999;28;20047;-57
2023/03/06 01:25:57;;;;;;;7.40;1.30;;;2.00;99.90;;;;;;5092200;28;20048;-58
2023/03/06 01:28:23;;;;;;;4.53;1.00;;;3.20;99.90;;;;;;5091918;28;20032;-57
2023/03/06 01:30:49;;;;;;;5.03;1.10;;;3.10;99.90;;;;;;5091954;28;20506;-58
2023/03/06 01:33:15;;;;;;;2.92;1.00;;;1.50;99.90;;;;;;5093526;28;20527;-57
2023/03/06 01:35:41;;;;;;;2.65;0.95;;;3.30;99.90;;;;;;5095824;28;20058;-57
2023/03/06 01:38:07;;;;;;;3.13;0.98;;;1.70;99.90;;;;;;5095735;28;20115;-56
2023/03/06 01:40:34;;;;;;;3.88;1.10;;;3.30;99.90;;;;;;5095729;28;20097;-57
2023/03/06 01:43:09;;;;;;;5.72;1.33;;;3.50;99.90;;;;;;5095586;28;20051;-57
2023/03/06 01:45:35;;;;;;;3.05;0.80;;;3.50;99.90;;;;;;5095626;28;20055;-58
2023/03/06 01:48:00;;;;;;;3.58;1.35;;;3.40;99.90;;;;;;5095440;28;20400;-58
2023/03/06 01:50:26;;;;;;;5.90;1.08;;;2.30;99.90;;;;;;5094104;28;20076;-59
2023/03/06 01:52:58;;;;;;;2.10;0.80;;;2.80;99.90;;;;;;5094998;28;20052;-57
2023/03/06 01:55:30;;;;;;;0.85;0.60;;;3.30;99.90;;;;;;5095384;28;20510;-58
2023/03/06 01:57:59;;;;;;;0.83;0.57;;;1.80;99.90;;;;;;5095695;28;20047;-57
2023/03/06 02:00:27;;;;;;;5.18;0.70;;;1.80;99.90;;;;;;5095250;28;20067;-58
2023/03/06 02:03:14;;;;;;;2.95;0.70;;;3.20;99.90;;;;;;5095407;28;20043;-58
2023/03/06 02:05:42;;;;;;;1.95;0.80;;;1.70;99.90;;;;;;5093892;28;20044;-58
2023/03/06 02:08:11;;;;;;;1.88;0.85;;;3.10;99.90;;;;;;5095107;28;20032;-57
2023/03/06 02:10:37;;;;;;;2.88;1.27;;;2.70;99.90;;;;;;5094970;28;20396;-58
2023/03/06 02:13:03;;;;;;;3.22;1.10;;;1.60;99.90;;;;;;5094872;28;20044;-58
2023/03/06 02:15:29;;;;;;;1.88;0.80;;;2.80;99.90;;;;;;5095161;28;20039;-58
2023/03/06 02:17:55;;;;;;;2.83;0.90;;;1.70;99.90;;;;;;5094980;28;20390;-58
2023/03/06 02:20:47;;;;;;;2.75;1.00;;;2.30;99.90;;;;;;5094709;28;20127;-58
2023/03/06 02:24:01;;;;;;;2.10;0.98;;;2.90;99.90;;;;;;5092472;28;20058;-59
2023/03/06 02:26:28;;;;;;;4.68;1.42;;;2.80;99.90;;;;;;5085708;28;20063;-59
2023/03/06 02:28:56;;;;;;;3.08;1.23;;;2.80;99.90;;;;;;5094797;28;20044;-58
2023/03/06 02:31:28;;;;;;;3.35;0.93;;;2.70;99.90;;;;;;5094612;28;20129;-58
2023/03/06 02:34:20;;;;;;;3.63;1.00;;;2.10;99.90;;;;;;5094537;28;20177;-59
2023/03/06 02:36:55;;;;;;;2.70;1.05;;;2.90;99.90;;;;;;5078407;28;20372;-58
2023/03/06 02:39:24;;;;;;;2.22;0.90;;;1.50;99.90;;;;;;5094424;28;20121;-58
2023/03/06 02:41:50;;;;;;;3.67;0.98;;;1.60;99.90;;;;;;5094392;28;20093;-58
2023/03/06 02:44:16;;;;;;;3.03;0.80;;;3.00;99.90;;;;;;5093150;28;20044;-58
2023/03/06 02:46:42;;;;;;;2.72;0.80;;;2.00;99.90;;;;;;5094422;28;20048;-57
2023/03/06 02:49:07;;;;;;;2.15;0.80;;;2.60;99.90;;;;;;5094358;28;20550;-57
2023/03/06 02:51:33;;;;;;;2.40;0.90;;;2.20;99.90;;;;;;5093835;28;20059;-58
2023/03/06 02:53:59;;;;;;;3.55;0.93;;;2.00;99.90;;;;;;5093988;28;20044;-57
2023/03/06 02:56:24;;;;;;;5.95;1.00;;;2.20;99.90;;;;;;5094105;28;20047;-58
2023/03/06 02:58:50;;;;;;;2.80;1.27;;;1.90;99.90;;;;;;5094160;28;20136;-58
2023/03/06 03:01:17;;;;;;;1.95;0.75;;;1.70;99.90;;;;;;5093027;28;20047;-58
2023/03/06 03:03:43;;;;;;;2.55;0.90;;;2.30;99.90;;;;;;5092612;28;20136;-58
2023/03/06 03:06:09;;;;;;;2.67;0.77;;;2.80;99.90;;;;;;5093908;28;20119;-58
2023/03/06 03:08:35;;;;;;;1.95;0.80;;;1.90;99.90;;;;;;5093960;28;20459;-58
2023/03/06 03:11:01;;;;;;;2.28;0.80;;;1.70;99.90;;;;;;5092659;28;20044;-66
2023/03/06 03:13:26;;;;;;;1.50;0.70;;;2.80;99.90;;;;;;5092674;28;20047;-59
2023/03/06 03:16:07;;;;;;;2.08;0.80;;;2.60;99.90;;;;;;5093579;28;20044;-58
2023/03/06 03:18:33;;;;;;;2.65;0.90;;;1.90;99.90;;;;;;5092446;28;20072;-57
2023/03/06 03:20:59;;;;;;;4.57;1.00;;;2.50;99.90;;;;;;5092369;28;20169;-57
2023/03/06 03:23:25;;;;;;;1.90;0.80;;;2.10;99.90;;;;;;5093686;28;20039;-57
2023/03/06 03:25:51;;;;;;;2.17;0.85;;;2.40;99.90;;;;;;5093501;28;20122;-57
2023/03/06 03:28:17;;;;;;;2.63;0.95;;;2.30;99.90;;;;;;5093251;28;20123;-58
2023/03/06 03:30:44;;;;;;;2.38;1.00;;;1.30;99.90;;;;;;5093522;28;20092;-57
2023/03/06 03:33:09;;;;;;;1.85;0.85;;;2.00;99.90;;;;;;5093356;28;20054;-57
2023/03/06 03:35:35;;;;;;;1.98;0.73;;;1.20;99.90;;;;;;5093594;28;20119;-57
2023/03/06 03:38:01;;;;;;;2.45;0.93;;;1.20;99.90;;;;;;5093414;28;20613;-58
2023/03/06 03:40:27;;;;;;;4.72;0.90;;;2.30;99.90;;;;;;5091954;28;20204;-59
2023/03/06 03:42:53;;;;;;;2.10;0.90;;;2.30;99.90;;;;;;5093085;28;20040;-57
2023/03/06 03:45:19;;;;;;;2.60;0.95;;;1.80;99.90;;;;;;5093174;28;20079;-57
2023/03/06 03:47:44;;;;;;;2.25;0.90;;;2.20;99.90;;;;;;5093287;28;20051;-58
2023/03/06 03:50:11;;;;;;;3.88;1.00;;;2.20;99.90;;;;;;5092921;28;20146;-58
2023/03/06 03:52:36;;;;;;;3.05;1.10;;;1.30;99.90;;;;;;5092814;28;20048;-58
2023/03/06 03:55:04;;;;;;;2.55;0.90;;;2.30;99.90;;;;;;5092314;28;20054;-58
2023/03/06 03:57:29;;;;;;;4.47;1.17;;;1.70;99.90;;;;;;5092995;28;20051;-58
2023/03/06 03:59:55;;;;;;;2.65;0.90;;;2.00;99.90;;;;;;5091490;28;20039;-58
2023/03/06 04:02:21;;;;;;;2.85;1.00;;;1.10;99.90;;;;;;5092964;28;20040;-57
2023/03/06 04:04:47;;;;;;;2.70;0.93;;;1.80;99.90;;;;;;5092810;28;20043;-58
2023/03/06 04:07:14;;;;;;;3.38;0.98;;;1.20;99.90;;;;;;5092596;28;20152;-58
2023/03/06 04:09:39;;;;;;;2.45;0.93;;;1.60;99.90;;;;;;5092877;28;20047;-58
2023/03/06 04:12:06;;;;;;;2.80;1.00;;;1.10;99.90;;;;;;5092819;28;20040;-58
2023/03/06 04:14:31;;;;;;;3.85;1.08;;;1.00;99.90;;;;;;5092949;28;20447;-58
2023/03/06 04:16:57;;;;;;;2.88;1.08;;;1.20;99.90;;;;;;5092551;28;20132;-58
2023/03/06 04:19:23;;;;;;;2.95;0.98;;;2.30;99.90;;;;;;5091480;28;20407;-58
2023/03/06 04:21:48;;;;;;;3.33;1.05;;;1.20;99.90;;;;;;5092649;28;20494;-58
2023/03/06 04:24:14;;;;;;;2.97;0.93;;;1.10;99.90;;;;;;5092404;28;20044;-59
2023/03/06 04:26:40;;;;;;;2.97;1.20;;;1.00;99.90;;;;;;5092558;28;20051;-60
2023/03/06 04:29:05;;;;;;;3.35;1.20;;;2.30;99.90;;;;;;5092416;28;20040;-59
2023/03/06 04:31:31;;;;;;;2.60;0.95;;;1.10;99.90;;;;;;5091244;28;20101;-59
2023/03/06 04:33:57;;;;;;;3.50;1.10;;;0.90;99.90;;;;;;5092527;28;20076;-59
2023/03/06 04:36:31;;;;;;;2.80;0.95;;;1.70;99.90;;;;;;5092522;28;20036;-59
2023/03/06 04:38:57;;;;;;;3.38;1.10;;;0.90;99.90;;;;;;5091351;28;20415;-59
2023/03/06 04:41:23;;;;;;;3.10;1.17;;;1.10;99.90;;;;;;5091013;28;20040;-59
2023/03/06 04:43:49;;;;;;;2.50;1.08;;;0.80;99.90;;;;;;5092218;28;20402;-61
2023/03/06 04:46:15;;;;;;;3.45;1.30;;;0.90;99.90;;;;;;5092190;28;20097;-59
2023/03/06 04:48:41;;;;;;;2.75;1.00;;;2.00;99.90;;;;;;5091042;28;20040;-59
2023/03/06 04:51:06;;;;;;;3.92;1.25;;;2.20;99.90;;;;;;5091866;28;20051;-59
2023/03/06 04:53:32;;;;;;;2.75;1.20;;;2.20;99.90;;;;;;5092234;28;20089;-59
2023/03/06 04:55:58;;;;;;;4.47;0.95;;;0.90;99.90;;;;;;5090822;28;20123;-60
2023/03/06 04:58:24;;;;;;;3.45;1.35;;;1.50;99.90;;;;;;5092309;28;20036;-59
2023/03/06 05:00:50;;;;;;;3.53;1.20;;;2.20;99.90;;;;;;5091924;28;20048;-59
2023/03/06 05:03:16;;;;;;;5.60;1.40;;;0.90;99.90;;;;;;5092019;28;20036;-60
2023/03/06 05:05:41;;;;;;;3.30;1.30;;;1.90;99.90;;;;;;5091813;28;20063;-58
2023/03/06 05:08:14;;;;;;;5.57;1.35;;;1.90;99.90;;;;;;5095685;28;20043;-57
2023/03/06 05:10:40;;;;;;;3.15;1.23;;;0.80;99.90;;;;;;5096168;28;20067;-59
2023/03/06 05:13:06;;;;;;;4.28;1.30;;;0.70;99.90;;;;;;5096108;28;20048;-57
2023/03/06 05:15:32;;;;;;;3.13;1.20;;;2.00;99.90;;;;;;5096041;28;20093;-58
2023/03/06 05:17:58;;;;;;;3.03;1.02;;;2.00;99.90;;;;;;5096091;28;20058;-58
2023/03/06 05:20:24;;;;;;;3.38;1.10;;;2.00;99.90;;;;;;5095815;28;20047;-58
2023/03/06 05:22:49;;;;;;;2.70;1.10;;;1.10;99.90;;;;;;5094719;28;20086;-58
2023/03/06 05:25:15;;;;;;;3.13;1.08;;;0.90;99.90;;;;;;5095664;28;20068;-57
2023/03/06 05:27:41;;;;;;;2.78;1.00;;;0.70;99.90;;;;;;5096036;28;20043;-58
2023/03/06 05:30:10;;;;;;;2.92;1.10;;;1.20;99.90;;;;;;5095791;28;20323;-58
2023/03/06 05:32:35;;;;;;;4.00;1.20;;;0.70;99.90;;;;;;5095619;28;20043;-58
2023/03/06 05:35:01;;;;;;;3.38;1.27;;;1.90;99.90;;;;;;5094210;28;20040;-59
2023/03/06 05:37:27;;;;;;;4.18;1.45;;;1.00;99.90;;;;;;5095870;28;20024;-58
2023/03/06 05:39:52;;;;;;;4.50;1.50;;;1.80;99.90;;;;;;5095654;28;20051;-57
2023/03/06 05:42:18;;;;;;;3.67;1.38;;;1.50;99.90;;;;;;5095518;28;20125;-58
2023/03/06 05:44:44;;;;;;;4.03;1.38;;;1.30;99.90;;;;;;5095712;28;20547;-58
2023/03/06 05:47:10;;;;;;;4.32;1.55;;;0.70;99.90;;;;;;5095297;28;20499;-58
2023/03/06 05:49:36;;;;;;;4.57;1.60;;;1.30;99.90;;;;;;5093678;28;20044;-57
2023/03/06 05:52:04;;;;;;;4.07;1.38;;;1.10;99.90;;;;;;5094956;28;20059;-58
2023/03/06 05:54:30;;;;;;;3.85;1.40;;;1.20;99.90;;;;;;5095487;28;20373;-58
2023/03/06 05:56:56;;;;;;;4.45;1.70;;;0.60;99.90;;;;;;5091439;28;20035;-58
2023/03/06 05:59:26;;;;;;;4.28;1.45;;;1.50;99.90;;;;;;5077564;28;20045;-58
2023/03/06 06:01:55;;;;;;;4.30;1.48;;;1.60;99.90;;;;;;5073614;28;20052;-57
2023/03/06 06:04:22;;;;;;;3.72;1.35;;;1.60;99.90;;;;;;5073428;28;20482;-58
2023/03/06 06:06:53;;;;;;;3.97;1.63;;;0.80;99.90;;;;;;5080979;28;20035;-58
2023/03/06 06:09:21;;;;;;;3.58;1.40;;;1.40;99.90;;;;;;5079926;28;20115;-58
2023/03/06 06:11:49;;;;;;;2.25;0.90;;;1.20;99.90;;;;;;5083012;28;20047;-58
2023/03/06 06:14:15;;;;;;;2.65;0.90;;;0.50;99.90;;;;;;5081706;28;20059;-58
2023/03/06 06:16:41;;;;;;;2.15;1.00;;;0.50;99.90;;;;;;5075149;28;20049;-58
2023/03/06 06:19:06;;;;;;;2.03;0.85;;;0.30;99.90;;;;;;5071158;28;20134;-58
2023/03/06 06:21:32;;;;;;;2.90;1.05;;;1.00;99.90;;;;;;5072918;28;20040;-58
2023/03/06 06:23:58;;;;;;;2.42;0.98;;;1.40;99.90;;;;;;5072864;28;20052;-58
2023/03/06 06:26:23;;;;;;;2.10;1.00;;;1.10;99.90;;;;;;5072997;28;20044;-58
2023/03/06 06:28:49;;;;;;;3.05;1.15;;;1.30;99.90;;;;;;5073046;28;20492;-58
2023/03/06 06:31:14;;;;;;;2.25;1.00;;;0.20;99.90;;;;;;5071531;28;20045;-58
2023/03/06 06:33:40;;;;;;;3.20;1.27;;;1.00;99.90;;;;;;5073254;28;20044;-58
2023/03/06 06:36:15;;;;;;;3.03;1.10;;;0.40;99.90;;;;;;5072893;28;20079;-58
2023/03/06 06:38:40;;;;;;;3.92;1.50;;;1.30;99.90;;;;;;5072579;28;20048;-58
2023/03/06 06:41:06;;;;;;;2.72;1.05;;;1.30;99.90;;;;;;5073001;28;20063;-58
2023/03/06 06:43:31;;;;;;;2.13;0.88;;;0.40;99.90;;;;;;5072549;28;20056;-57
2023/03/06 06:45:58;;;;;;;3.35;1.35;;;1.10;99.90;;;;;;5071365;28;20194;-56
2023/03/06 06:48:23;;;;;;;2.00;0.82;;;1.30;99.90;;;;;;5072521;28;20055;-57
2023/03/06 06:50:57;;;;;;;2.72;0.90;;;0.30;99.90;;;;;;5087832;28;20036;-57
2023/03/06 06:53:23;;;;;;;2.88;1.00;;;1.10;99.90;;;;;;5084764;28;20404;-58
2023/03/06 06:55:49;;;;;;;2.90;0.93;;;1.30;99.90;;;;;;5083220;28;20043;-58
2023/03/06 06:58:15;;;;;;;3.42;1.05;;;0.30;99.90;;;;;;5092570;28;20040;-58
2023/03/06 07:00:41;;;;;;;2.00;0.85;;;1.20;99.90;;;;;;5091241;28;20544;-58
2023/03/06 07:03:07;;;;;;;2.47;1.00;;;1.30;99.90;;;;;;5092658;28;20073;-59
2023/03/06 07:05:33;;;;;;;1.85;0.85;;;0.40;99.90;;;;;;5092554;28;20055;-58
2023/03/06 07:07:59;;;;;;;4.13;1.38;;;1.40;99.90;;;;;;5092577;28;20040;-58
2023/03/06 07:10:25;;;;;;;3.65;1.30;;;1.50;99.90;;;;;;5092421;28;20037;-58
2023/03/06 07:12:50;;;;;;;2.47;1.13;;;1.20;99.90;;;;;;5092269;28;20491;-58
2023/03/06 07:15:17;;;;;;;4.05;1.90;;;0.80;99.90;;;;;;5092598;28;20035;-59
2023/03/06 07:17:43;;;;;;;3.50;1.33;;;0.60;99.90;;;;;;5092402;28;20039;-59
2023/03/06 07:20:09;;;;;;;3.35;1.27;;;1.70;99.90;;;;;;5092027;28;20073;-59
2023/03/06 07:22:36;;;;;;;3.05;1.30;;;1.40;99.90;;;;;;5092197;28;20456;-58
2023/03/06 07:25:03;;;;;;;4.07;1.33;;;0.70;99.90;;;;;;5092192;28;20048;-58
2023/03/06 07:27:29;;;;;;;4.85;1.60;;;0.80;99.90;;;;;;5091910;28;20392;-59
2023/03/06 07:29:54;;;;;;;3.28;1.25;;;0.90;99.90;;;;;;5091396;28;20040;-58
2023/03/06 07:32:20;;;;;;;3.17;1.45;;;1.50;99.90;;;;;;5090391;28;20369;-58
2023/03/06 07:34:46;;;;;;;3.95;1.55;;;1.90;99.90;;;;;;5090625;28;20040;-58
2023/03/06 07:37:12;;;;;;;2.83;1.33;;;1.10;99.90;;;;;;5091737;28;20040;-59
2023/03/06 07:39:38;;;;;;;3.65;1.80;;;0.90;99.90;;;;;;5091828;28;20422;-59
2023/03/06 07:42:04;;;;;;;4.25;1.50;;;1.90;99.90;;;;;;5090459;28;20059;-58
2023/03/06 07:44:30;;;;;;;3.42;1.58;;;1.40;99.90;;;;;;5088565;28;20527;-58
2023/03/06 07:46:56;;;;;;;2.55;1.20;;;1.90;99.90;;;;;;5081901;28;20445;-58
2023/03/06 07:49:21;;;;;;;2.85;1.38;;;1.60;99.90;;;;;;5080089;28;20038;-58
2023/03/06 07:51:47;;;;;;;3.13;1.15;;;1.10;99.90;;;;;;5082472;28;20051;-58
2023/03/06 07:54:13;;;;;;;3.30;1.30;;;1.20;99.90;;;;;;5079447;28;20069;-58
2023/03/06 07:56:38;;;;;;;2.65;1.20;;;1.10;99.90;;;;;;5071093;28;20051;-58
2023/03/06 07:59:04;;;;;;;2.97;1.27;;;2.10;99.90;;;;;;5069811;28;20476;-58
2023/03/06 08:01:30;;;;;;;2.75;1.10;;;2.40;99.90;;;;;;5070631;28;20488;-58
2023/03/06 08:03:55;;;;;;;2.83;1.40;;;1.70;99.90;;;;;;5070422;28;20393;-58
2023/03/06 08:06:24;;;;;;;2.83;1.33;;;1.50;99.90;;;;;;5070306;28;20032;-59
2023/03/06 08:08:51;;;;;;;2.50;1.10;;;2.50;99.90;;;;;;5070797;28;20119;-57
2023/03/06 08:11:19;;;;;;;3.88;1.55;;;2.00;99.90;;;;;;5070365;28;20062;-57
2023/03/06 08:13:47;;;;;;;3.08;1.10;;;1.90;99.90;;;;;;5070739;28;20040;-58
2023/03/06 08:16:13;;;;;;;6.28;1.58;;;2.60;99.90;;;;;;5070709;28;20040;-58
2023/03/06 08:18:39;;;;;;;3.60;1.70;;;1.60;99.90;;;;;;5070788;28;20051;-57
2023/03/06 08:21:07;;;;;;;3.53;1.40;;;1.90;99.90;;;;;;5070540;28;20048;-60
2023/03/06 08:23:34;;;;;;;6.65;1.85;;;1.60;99.90;;;;;;5070398;28;20367;-58
2023/03/06 08:26:05;;;;;;;4.38;1.60;;;2.00;99.90;;;;;;5069761;28;20048;-58
2023/03/06 08:28:30;;;;;;;6.57;1.67;;;2.10;99.90;;;;;;5070792;28;20068;-59
2023/03/06 08:30:57;;;;;;;2.78;1.60;;;2.30;99.90;;;;;;5075547;28;20072;-59
2023/03/06 08:33:22;;;;;;;2.75;1.15;;;2.00;99.90;;;;;;5079495;28;20393;-59
2023/03/06 08:35:48;;;;;;;4.45;1.73;;;2.80;99.90;;;;;;5080675;28;20032;-58
2023/03/06 08:38:14;;;;;;;5.63;1.30;;;2.10;99.90;;;;;;5080675;28;20072;-58
2023/03/06 08:40:40;;;;;;;3.00;1.25;;;2.70;99.90;;;;;;5079085;28;20403;-58
2023/03/06 08:43:08;;;;;;;3.80;1.42;;;1.90;99.90;;;;;;5080450;28;20047;-59
2023/03/06 08:45:34;;;;;;;3.70;1.40;;;2.90;99.90;;;;;;5080908;28;20071;-59
2023/03/06 08:48:00;;;;;;;3.28;1.40;;;2.00;99.90;;;;;;5078867;28;20123;-59
2023/03/06 08:50:25;;;;;;;3.95;1.50;;;2.20;99.90;;;;;;5080986;28;20499;-60
2023/03/06 08:52:52;;;;;;;4.13;1.40;;;3.20;99.90;;;;;;5086253;28;20553;-58
2023/03/06 08:55:18;;;;;;;3.30;1.48;;;2.40;99.90;;;;;;5090754;28;20040;-58
2023/03/06 08:57:44;;;;;;;4.70;1.40;;;2.90;99.90;;;;;;5090251;28;20488;-59
2023/03/06 09:00:11;;;;;;;4.90;1.08;;;2.80;99.90;;;;;;5090536;28;20036;-58
2023/03/06 09:02:37;;;;;;;4.75;1.40;;;3.50;99.90;;;;;;5090102;28;20538;-59
2023/03/06 09:05:07;;;;;;;4.03;1.45;;;3.10;99.90;;;;;;5087229;28;20032;-59
2023/03/06 09:07:33;;;;;;;2.67;1.15;;;3.00;99.90;;;;;;5090387;28;20047;-59
2023/03/06 09:09:59;;;;;;;5.90;1.20;;;3.60;99.90;;;;;;5090624;28;20082;-59
2023/03/06 09:12:25;;;;;;;4.30;1.40;;;3.70;99.90;;;;;;5090321;28;20075;-60
2023/03/06 09:14:51;;;;;;;3.97;1.30;;;3.40;99.90;;;;;;5089319;28;20047;-60
2023/03/06 09:17:17;;;;;;;3.53;1.13;;;3.30;99.90;;;;;;5072484;28;20454;-59
2023/03/06 09:19:42;;;;;;;2.70;1.00;;;3.30;99.90;;;;;;5090420;28;20462;-59
2023/03/06 09:22:08;;;;;;;1.65;0.80;;;3.70;99.90;;;;;;5090672;28;20047;-58
2023/03/06 09:24:34;;;;;;;3.22;1.00;;;3.40;99.90;;;;;;5091859;28;20434;-60
2023/03/06 09:27:00;;;;;;;4.63;1.20;;;3.50;99.90;;;;;;5086460;28;20403;-60
2023/03/06 09:29:26;;;;;;;4.45;1.15;;;3.60;99.90;;;;;;5083913;28;20036;-61
2023/03/06 09:31:52;;;;;;;6.03;1.30;;;3.60;99.90;;;;;;5085822;28;20048;-60
2023/03/06 09:34:18;;;;;;;3.95;1.30;;;3.80;99.90;;;;;;5085051;28;20052;-61
2023/03/06 09:36:43;;;;;;;4.57;0.80;;;3.90;99.90;;;;;;5084706;28;20051;-60
2023/03/06 09:39:10;;;;;;;1.63;0.70;;;4.10;99.90;;;;;;5085646;28;20040;-60
2023/03/06 09:41:39;;;;;;;3.35;0.85;;;4.20;99.90;;;;;;5085239;28;20119;-60
2023/03/06 09:44:10;;;;;;;2.80;1.05;;;4.30;99.90;;;;;;5085585;28;20043;-60
2023/03/06 09:47:27;;;;;;;1.85;0.65;;;4.60;99.90;;;;;;5083422;28;20055;-60
2023/03/06 09:50:04;;;;;;;3.03;0.75;;;4.30;99.90;;;;;;5060136;28;20071;-60
2023/03/06 09:52:44;;;;;;;1.70;0.65;;;4.40;99.90;;;;;;5084215;28;20420;-60
2023/03/06 09:55:22;;;;;;;3.38;0.70;;;4.50;99.90;;;;;;5086971;28;20399;-61
2023/03/06 09:57:51;;;;;;;3.47;0.70;;;4.40;99.90;;;;;;5084204;28;20045;-61
2023/03/06 10:00:42;;;;;;;1.48;0.80;;;4.40;99.90;;;;;;5085790;28;20036;-61
2023/03/06 10:03:35;;;;;;;1.02;0.57;;;4.60;99.90;;;;;;5056403;28;20449;-61
2023/03/06 10:06:26;;;;;;;3.67;0.70;;;4.60;99.90;;;;;;5087289;28;20165;-57
2023/03/06 10:09:09;;;;;;;5.78;0.90;;;4.60;99.90;;;;;;5088238;28;20111;-58
2023/03/06 10:11:53;;;;;;;1.48;0.70;;;4.80;99.90;;;;;;5086806;28;20130;-59
2023/03/06 10:14:21;;;;;;;1.02;0.50;;;4.90;99.90;;;;;;5085897;28;20388;-60
2023/03/06 10:16:47;;;;;;;2.88;0.80;;;5.00;99.90;;;;;;5087337;28;20036;-59
2023/03/06 10:19:16;;;;;;;1.70;0.60;;;5.10;99.90;;;;;;5086455;28;20077;-59
2023/03/06 10:22:00;;;;;;;4.57;0.70;;;5.00;99.90;;;;;;5086728;28;20047;-59
2023/03/06 10:24:46;;;;;;;0.65;0.50;;;5.10;99.90;;;;;;5087395;28;20032;-59
2023/03/06 10:27:30;;;;;;;1.90;0.50;;;5.10;99.90;;;;;;5087127;28;20123;-60
2023/03/06 10:30:31;;;;;;;2.03;0.70;;;5.10;99.90;;;;;;5086226;28;20090;-59
2023/03/06 10:33:04;;;;;;;2.45;0.60;;;5.20;99.90;;;;;;5087243;28;20044;-58
2023/03/06 10:35:38;;;;;;;1.48;0.63;;;5.20;99.90;;;;;;5085797;28;20143;-59
2023/03/06 10:38:45;;;;;;;2.92;0.80;;;5.10;99.90;;;;;;5087320;28;20189;-51
2023/03/06 10:41:10;;;;;;;1.88;0.63;;;5.10;99.90;;;;;;5074501;28;20130;-60
2023/03/06 10:43:42;;;;;;;2.35;0.80;;;5.10;99.90;;;;;;5088278;28;20115;-60
2023/03/06 10:46:13;;;;;;;3.17;0.73;;;4.90;99.90;;;;;;5088658;28;20051;-60
2023/03/06 10:48:40;;;;;;;4.00;0.70;;;4.80;99.90;;;;;;5088651;28;20048;-61
2023/03/06 10:51:23;;;;;;;5.50;1.33;;;4.80;99.90;;;;;;5087072;28;20397;-60
2023/03/06 10:53:58;;;;;;;3.92;0.60;;;4.90;99.90;;;;;;5087094;28;20043;-52
2023/03/06 10:56:36;;;;;;;2.13;0.60;;;5.00;99.90;;;;;;5087364;28;20040;-60
2023/03/06 10:59:11;;;;;;;4.68;0.90;;;5.20;99.90;;;;;;5088065;28;20480;-50
2023/03/06 11:01:41;;;;;;;2.28;0.60;;;5.30;99.90;;;;;;5088678;28;20430;-59
2023/03/06 11:04:30;;;;;;;4.10;1.17;;;5.30;99.90;;;;;;5087541;28;20055;-59
2023/03/06 11:07:18;;;;;;;3.85;0.70;;;5.30;99.90;;;;;;5086343;28;20055;-50
2023/03/06 11:10:17;;;;;;;2.95;0.77;;;5.50;99.90;;;;;;5086266;28;20042;-59
2023/03/06 11:13:03;;;;;;;3.17;0.73;;;5.50;99.90;;;;;;5087768;28;20862;-60
2023/03/06 11:15:29;;;;;;;4.10;0.82;;;5.50;99.90;;;;;;5086642;28;20081;-59
2023/03/06 11:17:58;;;;;;;1.75;0.65;;;5.50;99.90;;;;;;5088144;28;20475;-61
2023/03/06 11:20:26;;;;;;;1.80;0.70;;;5.60;99.90;;;;;;5087412;28;20047;-60
2023/03/06 11:23:02;;;;;;;1.10;0.50;;;5.50;99.90;;;;;;5087890;28;20040;-59
2023/03/06 11:25:50;;;;;;;2.75;0.80;;;5.80;99.90;;;;;;5087997;28;20126;-52
2023/03/06 11:28:39;;;;;;;2.83;0.90;;;6.00;99.90;;;;;;5087795;28;20519;-59
2023/03/06 11:31:14;;;;;;;4.05;0.90;;;6.00;99.90;;;;;;5085776;28;20032;-60
2023/03/06 11:34:12;;;;;;;4.60;0.82;;;6.00;99.90;;;;;;5087678;28;20040;-58
2023/03/06 11:36:47;;;;;;;1.52;0.80;;;5.80;99.90;;;;;;5087003;28;20031;-58
2023/03/06 11:39:31;;;;;;;5.85;1.00;;;6.10;99.90;;;;;;5087339;28;20047;-59
2023/03/06 11:42:18;;;;;;;4.70;1.25;;;6.10;99.90;;;;;;5087233;28;20039;-57
2023/03/06 11:45:01;;;;;;;4.53;0.98;;;6.30;99.90;;;;;;5086260;28;20036;-59
2023/03/06 11:47:29;;;;;;;;;;;6.10;99.90;;;;;;5087501;28;20036;-58
2023/03/06 11:50:18;;;;;;;2.63;0.90;;;6.40;99.90;;;;;;5087054;28;19937;-55
2023/03/06 11:52:52;;;;;;;1.60;0.80;;;6.60;99.90;;;;;;5085765;28;20065;-56
2023/03/06 11:55:33;;;;;;;2.55;1.50;;;6.60;99.90;;;;;;5087469;28;20035;-56
2023/03/06 11:58:19;;;;;;;2.17;1.00;;;6.50;99.90;;;;;;5087262;28;20415;-61
2023/03/06 12:00:56;;;;;;;6.47;0.82;;;6.50;99.90;;;;;;5086728;28;20115;-61
2023/03/06 12:03:25;;;;;;;4.68;1.15;;;6.50;99.90;;;;;;5085234;28;20160;-62
2023/03/06 12:06:04;;;;;;;3.60;1.00;;;6.90;99.90;;;;;;5086694;28;20044;-61
2023/03/06 12:09:08;;;;;;;2.95;0.70;;;7.10;99.90;;;;;;5085975;28;20036;-62
2023/03/06 12:11:43;;;;;;;8.23;1.25;;;7.10;99.90;;;;;;5086887;28;20044;-60
2023/03/06 12:14:17;;;;;;;3.83;1.10;;;7.00;99.90;;;;;;5086559;28;20548;-61
2023/03/06 12:16:50;;;;;;;3.17;0.80;;;7.00;99.90;;;;;;5085440;28;20086;-60
2023/03/06 12:19:44;;;;;;;3.75;1.08;;;6.90;99.90;;;;;;5086660;28;20032;-63
2023/03/06 12:22:31;;;;;;;4.45;0.70;;;6.60;99.90;;;;;;5085596;28;20044;-61
2023/03/06 12:25:18;;;;;;;2.08;0.60;;;6.40;99.90;;;;;;5085649;28;20046;-60
2023/03/06 12:27:58;;;;;;;2.28;0.60;;;6.30;99.90;;;;;;5085167;28;20044;-60
2023/03/06 12:31:05;;;;;;;4.05;0.85;;;6.10;99.90;;;;;;5086310;28;20040;-61
2023/03/06 12:33:55;;;;;;;4.15;0.70;;;5.90;99.90;;;;;;5073882;28;20073;-62
2023/03/06 12:36:56;;;;;;;2.72;0.50;;;5.80;99.90;;;;;;5083625;28;20032;-63
2023/03/06 12:39:22;;;;;;;4.63;0.77;;;5.80;99.90;;;;;;5086154;28;20101;-59
2023/03/06 12:42:03;;;;;;;2.97;0.60;;;5.90;99.90;;;;;;5085620;28;20089;-60
2023/03/06 12:44:54;;;;;;;1.35;0.57;;;5.80;99.90;;;;;;5086302;28;21364;-59
2023/03/06 12:47:22;;;;;;;2.63;0.88;;;5.90;99.90;;;;;;5085441;28;20074;-60
2023/03/06 12:49:56;;;;;;;2.65;0.80;;;6.00;99.90;;;;;;5084342;28;20431;-59
2023/03/06 12:52:26;;;;;;;2.38;0.70;;;6.10;99.90;;;;;;5086104;28;20140;-60
2023/03/06 12:54:53;;;;;;;1.17;0.60;;;6.10;99.90;;;;;;5085937;28;20086;-59
2023/03/06 12:57:23;;;;;;;1.02;0.60;;;6.00;99.90;;;;;;5085958;28;20453;-59
2023/03/06 12:59:49;;;;;;;2.85;0.70;;;6.10;99.90;;;;;;5086485;28;20032;-60
2023/03/06 13:02:49;;;;;;;1.98;0.70;;;6.30;99.90;;;;;;5084552;28;20475;-59
2023/03/06 13:05:38;;;;;;;3.53;0.90;;;6.30;99.90;;;;;;5083700;28;20052;-59
2023/03/06 13:08:15;;;;;;;1.05;0.60;;;6.30;99.90;;;;;;5080676;28;20086;-60
2023/03/06 13:10:48;;;;;;;0.80;0.40;;;6.40;99.90;;;;;;5083657;28;20067;-60
2023/03/06 13:13:44;;;;;;;3.58;0.90;;;6.40;99.90;;;;;;5083764;28;20039;-60